Time;durP1;ratioP1;P1;durP2;ratioP2;P2;SDS_P1;SDS_P2;PMS_P1;PMS_P2;Temp;Humidity;BMP_temperature;BMP_pressure;BME280_temperature;BME280_humidity;BME280_pressure;Samples;Min_cycle;Max_cycle;Signal;HPM_P1;HPM_P2
2022/05/10 00:01:16;;;;;;;13.05;8.50;;;;;;;;;;4998184;28;20076;-67
2022/05/10 00:03:42;;;;;;;11.18;8.73;;;;;;;;;;5010952;28;20042;-68
2022/05/10 00:06:07;;;;;;;12.35;8.15;;;;;;;;;;5011142;28;20156;-68
2022/05/10 00:08:33;;;;;;;12.70;9.20;;;;;;;;;;5010339;28;20179;-68
2022/05/10 00:10:58;;;;;;;14.95;9.75;;;;;;;;;;5011712;28;20034;-68
2022/05/10 00:13:24;;;;;;;12.98;9.27;;;;;;;;;;5011677;28;20034;-69
2022/05/10 00:15:53;;;;;;;15.02;8.93;;;;;;;;;;5009016;28;20040;-67
2022/05/10 00:18:22;;;;;;;11.75;8.85;;;;;;;;;;5009814;28;20038;-69
2022/05/10 00:20:47;;;;;;;14.45;9.73;;;;;;;;;;5010176;28;20037;-69
2022/05/10 00:23:16;;;;;;;12.05;9.82;;;;;;;;;;5008384;28;20030;-69
2022/05/10 00:25:51;;;;;;;13.30;10.13;;;;;;;;;;5007943;28;20042;-67
2022/05/10 00:28:17;;;;;;;13.43;9.75;;;;;;;;;;4991633;28;20446;-69
2022/05/10 00:30:43;;;;;;;12.98;10.00;;;;;;;;;;4999521;28;20030;-68
2022/05/10 00:33:14;;;;;;;12.48;9.38;;;;;;;;;;5009407;28;20144;-67
2022/05/10 00:35:40;;;;;;;12.90;9.77;;;;;;;;;;5008792;28;20240;-68
2022/05/10 00:38:05;;;;;;;13.65;10.10;;;;;;;;;;5010431;28;20107;-68
2022/05/10 00:40:34;;;;;;;12.43;9.35;;;;;;;;;;5010623;28;20463;-68
2022/05/10 00:43:08;;;;;;;16.00;9.52;;;;;;;;;;5010738;28;20457;-68
2022/05/10 00:45:40;;;;;;;12.95;9.68;;;;;;;;;;5009531;28;20152;-69
2022/05/10 00:48:18;;;;;;;12.52;9.02;;;;;;;;;;5010467;28;20030;-67
2022/05/10 00:50:50;;;;;;;11.45;9.02;;;;;;;;;;5010263;28;20056;-67
2022/05/10 00:53:21;;;;;;;12.18;9.18;;;;;;;;;;5009316;28;20061;-70
2022/05/10 00:55:51;;;;;;;;;;;;;;;;;;5011698;28;20486;-68
2022/05/10 00:58:28;;;;;;;11.73;9.38;;;;;;;;;;5009936;28;19967;-69
2022/05/10 01:00:55;;;;;;;12.38;9.20;;;;;;;;;;5011481;28;20029;-67
2022/05/10 01:03:33;;;;;;;13.38;9.63;;;;;;;;;;5009735;28;20040;-68
2022/05/10 01:06:10;;;;;;;13.60;9.57;;;;;;;;;;5011605;28;20034;-68
2022/05/10 01:09:09;;;;;;;12.85;9.30;;;;;;;;;;4991545;28;20046;-68
2022/05/10 01:11:53;;;;;;;13.40;9.48;;;;;;;;;;5007996;28;20393;-68
2022/05/10 01:14:26;;;;;;;14.15;10.13;;;;;;;;;;5011106;28;20042;-69
2022/05/10 01:16:51;;;;;;;13.15;10.10;;;;;;;;;;5008742;28;20025;-68
2022/05/10 01:19:17;;;;;;;12.82;9.60;;;;;;;;;;5003562;28;20030;-68
2022/05/10 01:22:04;;;;;;;15.10;10.18;;;;;;;;;;5001601;28;20034;-68
2022/05/10 01:24:41;;;;;;;12.73;9.88;;;;;;;;;;5009781;28;20107;-68
2022/05/10 01:27:37;;;;;;;11.45;9.13;;;;;;;;;;5005502;28;20038;-68
2022/05/10 01:30:08;;;;;;;13.15;9.68;;;;;;;;;;5005807;28;20394;-68
2022/05/10 01:33:31;;;;;;;13.85;10.15;;;;;;;;;;5010557;28;20237;-69
2022/05/10 01:36:21;;;;;;;14.07;10.13;;;;;;;;;;4976213;28;20498;-68
2022/05/10 01:39:04;;;;;;;14.43;9.85;;;;;;;;;;5006660;28;20038;-67
2022/05/10 01:41:39;;;;;;;13.75;10.55;;;;;;;;;;5012425;28;20160;-69
2022/05/10 01:44:30;;;;;;;14.25;10.27;;;;;;;;;;5000082;28;20042;-67
2022/05/10 01:47:17;;;;;;;13.13;10.23;;;;;;;;;;4996188;28;20030;-68
2022/05/10 01:49:47;;;;;;;13.70;10.15;;;;;;;;;;5010265;28;20049;-67
2022/05/10 01:52:23;;;;;;;14.45;10.15;;;;;;;;;;5029567;28;20034;-67
2022/05/10 01:55:37;;;;;;;14.18;9.88;;;;;;;;;;5014683;28;20145;-67
2022/05/10 01:58:17;;;;;;;13.75;10.30;;;;;;;;;;5010336;28;20050;-67
2022/05/10 02:00:49;;;;;;;13.45;10.27;;;;;;;;;;5014419;28;20492;-68
2022/05/10 02:03:39;;;;;;;16.20;10.90;;;;;;;;;;5012448;28;20474;-67
2022/05/10 02:06:26;;;;;;;15.10;9.80;;;;;;;;;;5014250;28;20048;-67
2022/05/10 02:09:14;;;;;;;13.95;10.32;;;;;;;;;;5014084;28;20057;-68
2022/05/10 02:11:44;;;;;;;13.45;10.48;;;;;;;;;;5012881;28;20870;-70
2022/05/10 02:14:24;;;;;;;16.60;10.50;;;;;;;;;;5012971;28;20471;-68
2022/05/10 02:17:01;;;;;;;14.93;10.13;;;;;;;;;;5014523;28;20034;-67
2022/05/10 02:19:46;;;;;;;14.73;9.90;;;;;;;;;;5010388;28;20037;-69
2022/05/10 02:22:22;;;;;;;12.80;9.70;;;;;;;;;;5014569;28;20033;-68
2022/05/10 02:25:02;;;;;;;12.20;9.52;;;;;;;;;;5012894;28;20109;-67
2022/05/10 02:28:01;;;;;;;16.05;10.52;;;;;;;;;;5011613;28;20038;-68
2022/05/10 02:30:35;;;;;;;12.95;10.07;;;;;;;;;;5011982;28;20375;-67
2022/05/10 02:33:07;;;;;;;13.23;9.77;;;;;;;;;;4997105;28;20115;-68
2022/05/10 02:35:40;;;;;;;12.82;9.18;;;;;;;;;;5012988;28;20533;-69
2022/05/10 02:38:21;;;;;;;12.25;9.30;;;;;;;;;;5012045;28;20060;-68
2022/05/10 02:40:47;;;;;;;10.68;8.63;;;;;;;;;;5012399;28;20046;-69
2022/05/10 02:43:17;;;;;;;11.52;9.10;;;;;;;;;;5004871;28;20050;-69
2022/05/10 02:45:43;;;;;;;12.35;9.20;;;;;;;;;;5001496;28;20026;-69
2022/05/10 02:48:20;;;;;;;11.30;9.00;;;;;;;;;;5011076;28;20030;-69
2022/05/10 02:50:45;;;;;;;11.80;8.90;;;;;;;;;;5008120;28;20444;-68
2022/05/10 02:53:11;;;;;;;13.68;8.73;;;;;;;;;;5013235;28;20449;-68
2022/05/10 02:55:54;;;;;;;13.82;9.15;;;;;;;;;;5012878;28;20026;-68
2022/05/10 02:58:34;;;;;;;13.93;9.50;;;;;;;;;;5013554;28;20045;-68
2022/05/10 03:01:19;;;;;;;11.85;9.43;;;;;;;;;;5011192;28;20042;-68
2022/05/10 03:03:45;;;;;;;12.45;9.00;;;;;;;;;;5018255;28;20038;-68
2022/05/10 03:06:17;;;;;;;13.27;10.00;;;;;;;;;;5011584;28;20038;-70
2022/05/10 03:08:43;;;;;;;12.10;9.10;;;;;;;;;;5011256;28;20040;-69
2022/05/10 03:11:08;;;;;;;14.60;9.18;;;;;;;;;;5011567;28;20046;-70
2022/05/10 03:13:34;;;;;;;12.38;9.38;;;;;;;;;;5010707;28;20057;-70
2022/05/10 03:16:00;;;;;;;12.10;8.75;;;;;;;;;;5011720;28;20030;-69
2022/05/10 03:18:40;;;;;;;12.18;9.38;;;;;;;;;;5011430;28;20042;-68
2022/05/10 03:21:05;;;;;;;13.57;9.30;;;;;;;;;;5009004;28;20406;-70
2022/05/10 03:23:31;;;;;;;12.30;9.32;;;;;;;;;;5011437;28;20505;-68
2022/05/10 03:26:09;;;;;;;13.50;9.02;;;;;;;;;;5006978;28;20030;-70
2022/05/10 03:28:34;;;;;;;11.93;8.85;;;;;;;;;;5011377;28;20038;-68
2022/05/10 03:30:59;;;;;;;11.98;9.00;;;;;;;;;;5013323;28;20080;-69
2022/05/10 03:33:25;;;;;;;18.10;9.60;;;;;;;;;;5010652;28;20033;-67
2022/05/10 03:35:51;;;;;;;12.27;9.98;;;;;;;;;;5012876;28;20510;-70
2022/05/10 03:38:17;;;;;;;12.32;9.88;;;;;;;;;;5006761;28;20038;-70
2022/05/10 03:40:43;;;;;;;13.85;9.63;;;;;;;;;;5007661;28;20549;-69
2022/05/10 03:43:10;;;;;;;12.95;9.40;;;;;;;;;;4998094;28;20046;-68
2022/05/10 03:45:36;;;;;;;17.73;9.75;;;;;;;;;;5012021;28;20030;-68
2022/05/10 03:48:01;;;;;;;15.20;9.80;;;;;;;;;;5007034;28;20482;-70
2022/05/10 03:50:27;;;;;;;13.77;9.27;;;;;;;;;;5010801;28;20042;-68
2022/05/10 03:52:53;;;;;;;13.02;9.43;;;;;;;;;;5010544;28;20030;-69
2022/05/10 03:55:23;;;;;;;12.85;9.65;;;;;;;;;;5012721;28;20165;-69
2022/05/10 03:57:50;;;;;;;14.38;9.60;;;;;;;;;;5006957;28;20057;-69
2022/05/10 04:00:22;;;;;;;13.15;10.20;;;;;;;;;;4993060;28;20041;-69
2022/05/10 04:02:47;;;;;;;13.23;9.65;;;;;;;;;;5005324;28;20052;-70
2022/05/10 04:05:14;;;;;;;12.20;9.13;;;;;;;;;;5008619;28;20431;-69
2022/05/10 04:07:40;;;;;;;13.23;9.07;;;;;;;;;;5007421;28;20115;-68
2022/05/10 04:10:07;;;;;;;15.10;9.35;;;;;;;;;;5010878;28;20034;-69
2022/05/10 04:12:33;;;;;;;12.50;9.75;;;;;;;;;;5009465;28;20045;-69
2022/05/10 04:14:59;;;;;;;13.88;9.70;;;;;;;;;;5011042;28;20044;-69
2022/05/10 04:17:24;;;;;;;13.68;9.30;;;;;;;;;;5011154;28;20033;-67
2022/05/10 04:19:49;;;;;;;14.00;9.25;;;;;;;;;;5011103;28;20033;-70
2022/05/10 04:22:15;;;;;;;15.23;9.50;;;;;;;;;;4999795;28;20118;-70
2022/05/10 04:24:41;;;;;;;15.35;10.18;;;;;;;;;;5000727;28;20034;-68
2022/05/10 04:27:06;;;;;;;13.10;9.82;;;;;;;;;;5008418;28;20044;-70
2022/05/10 04:29:32;;;;;;;13.55;9.70;;;;;;;;;;5010341;28;20033;-68
2022/05/10 04:31:57;;;;;;;15.38;10.13;;;;;;;;;;5010217;28;20042;-66
2022/05/10 04:34:22;;;;;;;12.85;9.35;;;;;;;;;;4999529;28;20505;-69
2022/05/10 04:36:48;;;;;;;14.35;9.50;;;;;;;;;;5010204;28;20053;-69
2022/05/10 04:39:13;;;;;;;15.23;9.60;;;;;;;;;;5010872;28;20061;-70
2022/05/10 04:41:45;;;;;;;14.10;9.95;;;;;;;;;;5009729;28;20105;-70
2022/05/10 04:44:11;;;;;;;11.52;9.77;;;;;;;;;;5011857;28;20045;-71
2022/05/10 04:46:40;;;;;;;16.23;10.18;;;;;;;;;;5008958;28;20030;-69
2022/05/10 04:49:07;;;;;;;16.17;10.85;;;;;;;;;;4993180;28;20110;-71
2022/05/10 04:51:33;;;;;;;13.00;10.38;;;;;;;;;;5008864;28;20547;-69
2022/05/10 04:53:59;;;;;;;13.13;10.00;;;;;;;;;;5011061;28;20045;-70
2022/05/10 04:56:24;;;;;;;12.55;10.27;;;;;;;;;;5010921;28;20172;-70
2022/05/10 04:58:54;;;;;;;12.32;9.95;;;;;;;;;;5009566;28;20040;-70
2022/05/10 05:01:21;;;;;;;14.50;10.13;;;;;;;;;;5011306;28;20456;-70
2022/05/10 05:03:49;;;;;;;12.35;9.88;;;;;;;;;;5012022;28;20037;-70
2022/05/10 05:06:17;;;;;;;13.63;9.70;;;;;;;;;;5011710;28;20034;-68
2022/05/10 05:08:43;;;;;;;11.93;9.70;;;;;;;;;;5013551;28;20108;-69
2022/05/10 05:11:10;;;;;;;14.00;10.05;;;;;;;;;;5013680;28;20534;-69
2022/05/10 05:13:36;;;;;;;15.30;10.30;;;;;;;;;;5010457;28;20057;-70
2022/05/10 05:16:02;;;;;;;16.08;11.20;;;;;;;;;;5005563;28;20041;-61
2022/05/10 05:18:27;;;;;;;14.63;10.38;;;;;;;;;;5010178;28;20046;-61
2022/05/10 05:20:53;;;;;;;12.85;9.93;;;;;;;;;;5000591;28;20085;-61
2022/05/10 05:23:20;;;;;;;14.63;10.25;;;;;;;;;;5000660;28;20120;-62
2022/05/10 05:25:46;;;;;;;12.90;10.00;;;;;;;;;;4995651;28;20030;-69
2022/05/10 05:28:12;;;;;;;13.02;10.27;;;;;;;;;;4999928;28;20119;-62
2022/05/10 05:30:40;;;;;;;15.55;10.52;;;;;;;;;;5014441;28;20084;-63
2022/05/10 05:33:06;;;;;;;11.50;9.80;;;;;;;;;;5014742;28;20044;-62
2022/05/10 05:35:32;;;;;;;13.98;9.63;;;;;;;;;;5014571;28;20088;-64
2022/05/10 05:37:58;;;;;;;14.15;10.30;;;;;;;;;;5014197;28;20113;-63
2022/05/10 05:40:24;;;;;;;14.80;10.32;;;;;;;;;;5015030;28;20105;-63
2022/05/10 05:42:50;;;;;;;14.32;10.52;;;;;;;;;;5010762;28;20502;-65
2022/05/10 05:45:19;;;;;;;16.70;10.85;;;;;;;;;;5003484;28;20030;-64
2022/05/10 05:47:45;;;;;;;12.43;10.55;;;;;;;;;;5010565;28;20474;-63
2022/05/10 05:50:14;;;;;;;15.23;10.43;;;;;;;;;;5014852;28;20038;-65
2022/05/10 05:52:40;;;;;;;15.73;10.35;;;;;;;;;;5008943;28;20046;-64
2022/05/10 05:55:07;;;;;;;15.77;10.80;;;;;;;;;;4995693;28;20038;-63
2022/05/10 05:57:32;;;;;;;17.83;10.50;;;;;;;;;;5008568;28;20044;-65
2022/05/10 06:00:00;;;;;;;13.43;10.35;;;;;;;;;;5013679;28;20042;-65
2022/05/10 06:02:27;;;;;;;14.90;10.55;;;;;;;;;;5008220;28;20109;-65
2022/05/10 06:04:53;;;;;;;12.85;10.38;;;;;;;;;;5013889;28;20131;-64
2022/05/10 06:07:18;;;;;;;13.15;10.25;;;;;;;;;;5012990;28;20126;-63
2022/05/10 06:09:45;;;;;;;13.95;10.52;;;;;;;;;;5013737;28;20375;-63
2022/05/10 06:12:13;;;;;;;12.35;9.15;;;;;;;;;;5011642;28;20122;-63
2022/05/10 06:14:39;;;;;;;12.25;9.57;;;;;;;;;;5010556;28;20038;-62
2022/05/10 06:17:05;;;;;;;14.32;9.30;;;;;;;;;;5005535;28;20038;-62
2022/05/10 06:19:32;;;;;;;11.68;9.25;;;;;;;;;;5029145;28;20029;-62
2022/05/10 06:21:58;;;;;;;13.23;9.68;;;;;;;;;;4998386;28;20029;-63
2022/05/10 06:24:24;;;;;;;11.73;9.10;;;;;;;;;;4994744;28;20117;-63
2022/05/10 06:26:49;;;;;;;12.98;9.40;;;;;;;;;;5004726;28;20034;-62
2022/05/10 06:29:15;;;;;;;14.07;8.70;;;;;;;;;;5015524;28;20364;-63
2022/05/10 06:31:41;;;;;;;12.85;8.48;;;;;;;;;;5014978;28;20029;-63
2022/05/10 06:34:07;;;;;;;11.77;8.73;;;;;;;;;;4999855;28;20046;-62
2022/05/10 06:36:33;;;;;;;16.00;8.90;;;;;;;;;;5005128;28;20137;-67
2022/05/10 06:38:58;;;;;;;11.52;8.27;;;;;;;;;;5011524;28;20477;-63
2022/05/10 06:41:24;;;;;;;14.90;8.45;;;;;;;;;;5012897;28;20030;-63
2022/05/10 06:43:49;;;;;;;15.43;8.90;;;;;;;;;;5009404;28;20077;-64
2022/05/10 06:46:17;;;;;;;13.20;8.13;;;;;;;;;;5010732;28;20034;-61
2022/05/10 06:48:46;;;;;;;13.45;8.60;;;;;;;;;;5001152;28;20037;-62
2022/05/10 06:51:13;;;;;;;12.10;8.65;;;;;;;;;;5010635;28;20042;-62
2022/05/10 06:53:40;;;;;;;12.05;8.20;;;;;;;;;;4993456;28;20117;-63
2022/05/10 06:56:06;;;;;;;15.82;8.68;;;;;;;;;;4997082;28;20043;-63
2022/05/10 06:58:31;;;;;;;16.63;8.25;;;;;;;;;;5009027;28;20041;-64
2022/05/10 07:00:57;;;;;;;12.90;7.80;;;;;;;;;;5012013;28;20034;-62
2022/05/10 07:03:30;;;;;;;19.88;8.70;;;;;;;;;;5011828;28;20026;-63
2022/05/10 07:05:56;;;;;;;13.85;8.13;;;;;;;;;;5008094;28;20141;-63
2022/05/10 07:08:21;;;;;;;13.73;8.32;;;;;;;;;;5009307;28;20121;-63
2022/05/10 07:10:47;;;;;;;14.20;8.40;;;;;;;;;;5001473;28;20115;-63
2022/05/10 07:13:17;;;;;;;12.70;8.13;;;;;;;;;;5001806;28;20034;-63
2022/05/10 07:15:44;;;;;;;15.35;8.20;;;;;;;;;;5005597;28;20027;-65
2022/05/10 07:18:10;;;;;;;14.35;8.30;;;;;;;;;;4993116;28;20432;-64
2022/05/10 07:20:35;;;;;;;11.70;7.80;;;;;;;;;;5004582;28;20026;-64
2022/05/10 07:23:00;;;;;;;17.60;7.85;;;;;;;;;;4993519;28;20483;-64
2022/05/10 07:25:28;;;;;;;13.40;7.75;;;;;;;;;;5012114;28;20034;-63
2022/05/10 07:27:54;;;;;;;11.88;7.70;;;;;;;;;;5004552;28;20286;-63
2022/05/10 07:30:23;;;;;;;18.02;7.53;;;;;;;;;;5002161;28;20082;-62
2022/05/10 07:32:49;;;;;;;27.15;8.38;;;;;;;;;;4999844;28;20034;-63
2022/05/10 07:35:15;;;;;;;13.10;7.65;;;;;;;;;;5000584;28;20450;-63
2022/05/10 07:37:40;;;;;;;15.23;8.30;;;;;;;;;;5010508;28;20053;-64
2022/05/10 07:40:09;;;;;;;16.80;7.55;;;;;;;;;;5003061;28;20438;-63
2022/05/10 07:42:36;;;;;;;15.13;7.57;;;;;;;;;;5001085;28;20052;-66
2022/05/10 07:45:07;;;;;;;13.82;7.43;;;;;;;;;;5012500;28;20072;-61
2022/05/10 07:47:43;;;;;;;18.88;7.60;;;;;;;;;;5010839;28;20128;-63
2022/05/10 07:50:09;;;;;;;21.15;7.65;;;;;;;;;;5007599;28;20048;-62
2022/05/10 07:52:34;;;;;;;17.60;7.10;;;;;;;;;;5010446;28;20029;-64
2022/05/10 07:55:00;;;;;;;12.15;6.82;;;;;;;;;;5007573;28;20037;-63
2022/05/10 07:57:25;;;;;;;11.55;6.43;;;;;;;;;;5007401;28;20040;-63
2022/05/10 07:59:51;;;;;;;10.93;6.68;;;;;;;;;;5008973;28;20116;-63
2022/05/10 08:02:16;;;;;;;16.33;6.28;;;;;;;;;;5012389;28;20053;-64
2022/05/10 08:04:42;;;;;;;10.85;6.00;;;;;;;;;;4992164;28;20030;-63
2022/05/10 08:07:07;;;;;;;9.85;5.63;;;;;;;;;;4992995;28;20041;-63
2022/05/10 08:09:33;;;;;;;10.98;6.13;;;;;;;;;;5007261;28;20030;-62
2022/05/10 08:11:58;;;;;;;10.23;5.47;;;;;;;;;;5009790;28;20678;-61
2022/05/10 08:14:24;;;;;;;11.30;5.60;;;;;;;;;;5012039;28;20501;-62
2022/05/10 08:16:49;;;;;;;8.77;5.35;;;;;;;;;;5010123;28;20480;-65
2022/05/10 08:19:15;;;;;;;10.75;5.13;;;;;;;;;;5005295;28;20038;-64
2022/05/10 08:21:40;;;;;;;6.97;5.22;;;;;;;;;;5011209;28;20388;-63
2022/05/10 08:24:06;;;;;;;8.93;5.25;;;;;;;;;;5011328;28;20390;-62
2022/05/10 08:26:32;;;;;;;8.68;4.90;;;;;;;;;;5010912;28;20038;-63
2022/05/10 08:28:57;;;;;;;9.73;5.45;;;;;;;;;;5009298;28;20040;-64
2022/05/10 08:31:22;;;;;;;10.65;5.00;;;;;;;;;;4993206;28;20034;-63
2022/05/10 08:33:53;;;;;;;11.02;4.85;;;;;;;;;;4991351;28;20451;-65
2022/05/10 08:36:18;;;;;;;7.68;5.15;;;;;;;;;;4993011;28;20038;-65
2022/05/10 08:38:44;;;;;;;6.38;5.00;;;;;;;;;;4990987;28;20490;-64
2022/05/10 08:41:17;;;;;;;6.40;4.47;;;;;;;;;;5009938;28;20061;-64
2022/05/10 08:43:57;;;;;;;10.80;4.60;;;;;;;;;;5011027;28;20145;-65
2022/05/10 08:46:33;;;;;;;9.40;4.68;;;;;;;;;;5010594;28;20077;-64
2022/05/10 08:49:10;;;;;;;6.78;4.65;;;;;;;;;;5009707;28;20052;-63
2022/05/10 08:51:36;;;;;;;9.20;4.60;;;;;;;;;;5012035;28;20030;-64
2022/05/10 08:54:02;;;;;;;10.77;4.40;;;;;;;;;;5008115;28;20470;-63
2022/05/10 08:56:43;;;;;;;6.78;4.07;;;;;;;;;;5010178;28;20041;-64
2022/05/10 08:59:24;;;;;;;8.15;4.50;;;;;;;;;;5010802;28;20034;-63
2022/05/10 09:02:03;;;;;;;7.03;4.28;;;;;;;;;;5009864;28;20096;-64
2022/05/10 09:04:47;;;;;;;9.75;4.20;;;;;;;;;;5011073;28;20110;-63
2022/05/10 09:07:35;;;;;;;7.55;4.10;;;;;;;;;;5002452;28;20368;-63
2022/05/10 09:10:32;;;;;;;8.55;4.30;;;;;;;;;;4991187;28;20220;-63
2022/05/10 09:13:03;;;;;;;6.85;3.78;;;;;;;;;;4997926;28;20057;-62
2022/05/10 09:15:35;;;;;;;9.68;4.00;;;;;;;;;;5004024;28;20054;-64
2022/05/10 09:18:19;;;;;;;6.47;4.05;;;;;;;;;;5002873;28;20682;-64
2022/05/10 09:21:22;;;;;;;6.03;4.10;;;;;;;;;;5010083;28;20038;-65
2022/05/10 09:24:06;;;;;;;6.95;4.28;;;;;;;;;;5010206;28;20042;-64
2022/05/10 09:26:38;;;;;;;6.18;4.25;;;;;;;;;;5007546;28;20034;-64
2022/05/10 09:29:10;;;;;;;5.60;3.70;;;;;;;;;;5008156;28;20095;-64
2022/05/10 09:37:17;;;;;;;7.53;3.55;;;;;;;;;;5008756;28;20438;-62
2022/05/10 09:39:50;;;;;;;9.60;3.95;;;;;;;;;;4997787;28;20030;-64
2022/05/10 09:42:38;;;;;;;8.35;3.70;;;;;;;;;;4992196;28;20051;-62
2022/05/10 09:45:21;;;;;;;5.80;3.75;;;;;;;;;;5007980;28;20120;-62
2022/05/10 09:48:11;;;;;;;6.85;3.58;;;;;;;;;;5007441;28;20466;-63
2022/05/10 09:50:39;;;;;;;7.60;3.53;;;;;;;;;;5014196;28;20121;-63
2022/05/10 09:53:12;;;;;;;6.30;3.50;;;;;;;;;;5010667;28;20520;-64
2022/05/10 09:55:38;;;;;;;6.53;3.78;;;;;;;;;;4995484;28;20081;-64
2022/05/10 09:58:20;;;;;;;5.85;3.60;;;;;;;;;;5007930;28;20025;-62
2022/05/10 10:00:52;;;;;;;9.10;3.67;;;;;;;;;;5013994;28;20034;-63
2022/05/10 10:03:26;;;;;;;8.02;3.85;;;;;;;;;;5000575;28;20030;-62
2022/05/10 10:05:54;;;;;;;9.27;3.70;;;;;;;;;;5011901;28;20097;-62
2022/05/10 10:08:38;;;;;;;11.30;3.90;;;;;;;;;;5002360;28;20033;-62
2022/05/10 10:11:12;;;;;;;7.85;3.70;;;;;;;;;;5013726;28;20088;-61
2022/05/10 10:13:40;;;;;;;4.72;3.58;;;;;;;;;;5011122;28;20483;-62
2022/05/10 10:16:48;;;;;;;8.82;3.92;;;;;;;;;;5013029;28;20470;-62
2022/05/10 10:19:22;;;;;;;7.22;3.70;;;;;;;;;;4992262;28;20051;-62
2022/05/10 10:22:06;;;;;;;4.82;3.70;;;;;;;;;;5003580;28;20034;-63
2022/05/10 10:24:39;;;;;;;5.03;3.83;;;;;;;;;;4997099;28;20034;-63
2022/05/10 10:27:51;;;;;;;8.18;4.40;;;;;;;;;;5013744;28;20486;-62
2022/05/10 10:30:57;;;;;;;6.85;4.32;;;;;;;;;;5006759;28;20494;-62
2022/05/10 10:33:39;;;;;;;9.25;4.55;;;;;;;;;;5001743;28;20054;-62
2022/05/10 10:36:27;;;;;;;10.23;4.28;;;;;;;;;;5012618;28;20508;-62
2022/05/10 10:39:06;;;;;;;8.20;4.45;;;;;;;;;;5010622;28;20038;-62
2022/05/10 10:41:31;;;;;;;8.20;4.30;;;;;;;;;;5011514;28;20037;-62
2022/05/10 10:44:21;;;;;;;11.77;5.25;;;;;;;;;;5010922;28;20045;-63
2022/05/10 10:47:00;;;;;;;8.02;4.70;;;;;;;;;;5003578;28;20035;-64
2022/05/10 10:49:35;;;;;;;11.90;4.90;;;;;;;;;;5000029;28;20045;-63
2022/05/10 10:52:01;;;;;;;9.68;4.78;;;;;;;;;;5002216;28;20073;-63
2022/05/10 10:54:29;;;;;;;8.40;4.63;;;;;;;;;;5002029;28;20065;-62
2022/05/10 10:57:03;;;;;;;9.48;4.95;;;;;;;;;;5012848;28;20034;-62
2022/05/10 10:59:50;;;;;;;10.63;4.78;;;;;;;;;;5012408;28;20042;-63
2022/05/10 11:02:24;;;;;;;9.32;4.38;;;;;;;;;;4973154;28;20042;-63
2022/05/10 11:05:11;;;;;;;7.93;4.57;;;;;;;;;;5009439;28;20041;-64
2022/05/10 11:08:14;;;;;;;7.22;4.45;;;;;;;;;;5013671;28;20034;-64
2022/05/10 11:11:03;;;;;;;10.25;4.75;;;;;;;;;;5011299;28;20508;-63
2022/05/10 11:13:49;;;;;;;7.03;4.40;;;;;;;;;;4998667;28;20038;-64
2022/05/10 11:16:52;;;;;;;8.32;4.53;;;;;;;;;;5011630;28;20049;-64
2022/05/10 11:19:29;;;;;;;6.47;4.10;;;;;;;;;;5013148;28;20061;-63
2022/05/10 11:22:26;;;;;;;5.38;4.10;;;;;;;;;;5010403;28;20117;-63
2022/05/10 11:25:33;;;;;;;10.88;4.18;;;;;;;;;;5002663;28;20047;-64
2022/05/10 11:28:23;;;;;;;6.13;4.22;;;;;;;;;;4981353;28;20041;-63
2022/05/10 11:31:06;;;;;;;6.00;3.83;;;;;;;;;;4993211;28;20113;-66
2022/05/10 11:34:01;;;;;;;5.95;3.70;;;;;;;;;;5019525;28;20052;-63
2022/05/10 11:36:37;;;;;;;7.30;3.90;;;;;;;;;;4993351;28;20064;-64
2022/05/10 11:39:24;;;;;;;4.82;3.70;;;;;;;;;;5011615;28;20466;-63
2022/05/10 11:42:33;;;;;;;5.05;3.53;;;;;;;;;;5009761;28;20045;-63
2022/05/10 11:45:21;;;;;;;9.10;3.80;;;;;;;;;;4937323;29;20031;-63
2022/05/10 11:48:13;;;;;;;10.68;3.72;;;;;;;;;;5011887;28;20107;-65
2022/05/10 11:54:18;;;;;;;6.60;3.88;;;;;;;;;;5011754;28;20100;-66
2022/05/10 11:56:47;;;;;;;7.28;3.67;;;;;;;;;;5011702;28;20029;-63
2022/05/10 11:59:24;;;;;;;9.50;3.72;;;;;;;;;;5005527;28;20041;-64
2022/05/10 12:01:52;;;;;;;7.47;3.90;;;;;;;;;;5007641;28;20451;-64
2022/05/10 12:04:43;;;;;;;5.43;3.47;;;;;;;;;;5011923;28;20113;-63
2022/05/10 12:07:24;;;;;;;7.00;3.65;;;;;;;;;;5008684;28;20502;-63
2022/05/10 12:09:52;;;;;;;6.28;3.55;;;;;;;;;;5011079;28;20037;-63
2022/05/10 12:12:33;;;;;;;5.22;3.53;;;;;;;;;;5012041;28;20033;-62
2022/05/10 12:21:21;;;;;;;8.60;3.90;;;;;;;;;;5005761;28;20552;-64
2022/05/10 12:24:25;;;;;;;6.35;4.00;;;;;;;;;;5006947;28;20028;-64
2022/05/10 12:26:52;;;;;;;6.15;3.50;;;;;;;;;;5010935;28;20445;-65
2022/05/10 12:29:39;;;;;;;8.60;3.75;;;;;;;;;;5009676;28;20398;-63
2022/05/10 12:32:28;;;;;;;8.23;3.92;;;;;;;;;;5006601;28;20117;-62
2022/05/10 12:34:58;;;;;;;6.47;3.60;;;;;;;;;;4986713;28;20493;-63
2022/05/10 12:37:26;;;;;;;6.70;4.00;;;;;;;;;;5003764;28;20030;-62
2022/05/10 12:40:00;;;;;;;6.78;4.10;;;;;;;;;;4990401;28;20031;-63
2022/05/10 12:42:36;;;;;;;5.65;3.90;;;;;;;;;;4997334;28;20099;-64
2022/05/10 12:45:01;;;;;;;5.78;3.50;;;;;;;;;;5009352;28;20479;-63
2022/05/10 12:47:51;;;;;;;5.30;3.83;;;;;;;;;;5011340;28;20030;-63
2022/05/10 12:50:55;;;;;;;6.88;4.20;;;;;;;;;;5011193;28;20494;-63
2022/05/10 12:53:26;;;;;;;6.18;3.72;;;;;;;;;;4990880;28;20048;-62
2022/05/10 12:56:10;;;;;;;9.40;4.28;;;;;;;;;;5011524;28;20060;-62
2022/05/10 12:58:43;;;;;;;6.13;3.90;;;;;;;;;;5011365;28;20113;-63
2022/05/10 13:01:12;;;;;;;6.45;4.30;;;;;;;;;;5010324;28;20149;-62
2022/05/10 13:03:45;;;;;;;8.63;4.38;;;;;;;;;;5007847;28;20034;-62
2022/05/10 13:06:22;;;;;;;6.43;4.38;;;;;;;;;;5007428;28;20034;-64
2022/05/10 13:08:56;;;;;;;9.48;4.03;;;;;;;;;;5008423;28;20042;-63
2022/05/10 13:11:25;;;;;;;8.23;4.20;;;;;;;;;;5012187;28;20030;-64
2022/05/10 13:13:53;;;;;;;7.53;4.05;;;;;;;;;;5007722;28;20034;-65
2022/05/10 13:16:20;;;;;;;6.25;4.10;;;;;;;;;;5010225;28;20674;-62
2022/05/10 13:18:47;;;;;;;9.15;4.30;;;;;;;;;;5011540;28;20034;-65
2022/05/10 13:21:21;;;;;;;6.95;4.00;;;;;;;;;;5004773;28;20041;-65
2022/05/10 13:23:46;;;;;;;13.05;3.95;;;;;;;;;;5009163;28;20034;-63
2022/05/10 13:26:12;;;;;;;7.65;4.00;;;;;;;;;;5008707;28;20041;-66
2022/05/10 13:28:59;;;;;;;7.07;4.30;;;;;;;;;;5010773;28;20033;-64
2022/05/10 13:31:32;;;;;;;7.55;4.60;;;;;;;;;;5001837;28;20076;-65
2022/05/10 13:34:14;;;;;;;8.27;4.22;;;;;;;;;;5014567;28;20080;-62
2022/05/10 13:36:46;;;;;;;8.05;4.32;;;;;;;;;;5010471;28;20030;-64
2022/05/10 13:39:13;;;;;;;6.95;4.18;;;;;;;;;;5006376;28;20649;-62
2022/05/10 13:41:38;;;;;;;7.40;4.53;;;;;;;;;;5002052;28;20109;-63
2022/05/10 13:44:17;;;;;;;7.35;4.15;;;;;;;;;;5014344;28;20121;-63
2022/05/10 13:46:54;;;;;;;10.77;4.47;;;;;;;;;;5012929;28;20509;-63
2022/05/10 13:49:26;;;;;;;7.30;4.45;;;;;;;;;;5013804;28;20036;-62
2022/05/10 13:51:58;;;;;;;6.47;4.38;;;;;;;;;;5007046;28;20031;-65
2022/05/10 13:54:31;;;;;;;8.60;4.35;;;;;;;;;;5011748;28;20021;-63
2022/05/10 13:57:18;;;;;;;6.55;4.15;;;;;;;;;;5003776;28;21022;-64
2022/05/10 13:59:44;;;;;;;7.95;4.55;;;;;;;;;;4995131;28;20121;-63
2022/05/10 14:02:12;;;;;;;7.13;4.22;;;;;;;;;;5004945;28;20037;-63
2022/05/10 14:04:46;;;;;;;9.10;4.18;;;;;;;;;;5013761;28;20384;-62
2022/05/10 14:07:20;;;;;;;9.27;4.20;;;;;;;;;;5014095;28;20053;-63
2022/05/10 14:09:49;;;;;;;8.35;4.43;;;;;;;;;;5005132;28;20033;-63
2022/05/10 14:12:14;;;;;;;9.02;4.03;;;;;;;;;;5011731;28;20430;-64
2022/05/10 14:14:41;;;;;;;8.10;4.20;;;;;;;;;;5007245;28;20037;-65
2022/05/10 14:17:06;;;;;;;12.13;4.40;;;;;;;;;;5012104;28;20125;-64
2022/05/10 14:19:39;;;;;;;7.43;4.32;;;;;;;;;;5014064;28;20517;-62
2022/05/10 14:22:12;;;;;;;6.88;3.97;;;;;;;;;;5011470;28;20088;-63
2022/05/10 14:24:39;;;;;;;10.98;4.97;;;;;;;;;;4999979;28;20030;-66
2022/05/10 14:27:22;;;;;;;10.32;4.38;;;;;;;;;;5009281;28;20137;-66
2022/05/10 14:29:49;;;;;;;7.72;4.15;;;;;;;;;;5014472;28;20110;-66
2022/05/10 14:32:36;;;;;;;8.95;4.20;;;;;;;;;;5012448;28;20088;-66
2022/05/10 14:35:24;;;;;;;6.90;4.05;;;;;;;;;;5012454;28;20033;-66
2022/05/10 14:37:51;;;;;;;6.88;3.83;;;;;;;;;;5012847;28;20107;-66
2022/05/10 14:40:28;;;;;;;6.38;3.70;;;;;;;;;;5010801;28;20038;-66
2022/05/10 14:43:04;;;;;;;5.97;4.20;;;;;;;;;;5002760;28;20108;-66
2022/05/10 14:45:36;;;;;;;7.72;3.83;;;;;;;;;;5003546;28;20093;-64
2022/05/10 14:48:26;;;;;;;6.10;4.07;;;;;;;;;;4999129;28;20907;-64
2022/05/10 14:50:57;;;;;;;8.95;4.03;;;;;;;;;;5000436;28;20038;-64
2022/05/10 14:53:36;;;;;;;6.03;3.78;;;;;;;;;;5009469;28;20482;-64
2022/05/10 14:56:01;;;;;;;9.27;4.30;;;;;;;;;;4997397;28;20100;-64
2022/05/10 14:58:29;;;;;;;6.35;4.22;;;;;;;;;;5001660;28;20038;-65
2022/05/10 15:01:24;;;;;;;7.57;4.10;;;;;;;;;;5008807;28;20026;-64
2022/05/10 15:04:05;;;;;;;6.35;3.95;;;;;;;;;;5011536;28;20045;-65
2022/05/10 15:06:31;;;;;;;;;;;;;;;;;;5013272;28;20026;-65
2022/05/10 15:08:56;;;;;;;7.60;4.03;;;;;;;;;;5011803;28;20500;-64
2022/05/10 15:11:22;;;;;;;11.07;3.92;;;;;;;;;;5012353;28;20033;-65
2022/05/10 15:13:47;;;;;;;11.85;3.90;;;;;;;;;;5012069;28;20033;-65
2022/05/10 15:16:12;;;;;;;7.32;3.60;;;;;;;;;;5011043;28;20117;-64
2022/05/10 15:21:36;;;;;;;6.68;3.72;;;;;;;;;;5012368;28;20613;-66
2022/05/10 15:24:05;;;;;;;11.35;3.70;;;;;;;;;;5007794;28;20513;-64
2022/05/10 15:26:33;;;;;;;7.63;3.50;;;;;;;;;;5011565;28;20534;-64